Disclaimer

Please do not use the information listed here in-flight or in-navigation, as they are not provided to us by the airports but are provided by volunteers, so they might be outdated.

Search


Regions


Airport information page

Radio informations:
TWR/APP - 118.7 MHz

Airport informations:
Latitude: 32° 54' 13.00" S
Longitude: 060° 47' 06.00" W
Elevation: 85 feet - 26 meters
Operating hours: Remarks
Operating agency: Civil government, landing fees and diplomatic clearance may be required
Timezone: UTC-3
Fuel: Jet A1, without icing nhibitor.

100/130 MIL Spec, low lead, aviation gasoline (BLUE)

Runway information:
02/20 - 9843 x 148 feet< - >3000 x 45 meters

Recent METARs:
SAAR 190100Z 00000KT CAVOK 17/08 Q1017
SAAR 190200Z 00000KT CAVOK 16/08 Q1018
SAAR 190200Z 00000KT CAVOK 16/08 Q1018

Airport on the map: